createdAt,value
2024-03-23T00:00:25.768Z,766.30
2024-03-23T00:01:25.792Z,759.60
2024-03-23T00:02:25.744Z,759.10
2024-03-23T00:03:25.744Z,724.80
2024-03-23T00:04:25.724Z,687.30
2024-03-23T00:05:25.728Z,738.20
2024-03-23T00:06:25.717Z,744.10
2024-03-23T00:07:25.717Z,752.10
2024-03-23T00:08:25.717Z,767.20
2024-03-23T00:09:34.552Z,761.80
2024-03-23T00:10:25.676Z,732.00
2024-03-23T00:11:25.687Z,563.30
2024-03-23T00:12:25.689Z,756.80
2024-03-23T00:13:25.695Z,739.70
2024-03-23T00:14:25.657Z,722.90
2024-03-23T00:15:25.679Z,731.70
2024-03-23T00:16:25.684Z,691.00
2024-03-23T00:17:25.638Z,730.60
2024-03-23T00:18:25.632Z,711.40
2024-03-23T00:19:25.648Z,657.30
2024-03-23T00:20:25.624Z,714.10
2024-03-23T00:21:25.638Z,710.50
2024-03-23T00:22:25.627Z,688.80
2024-03-23T00:23:25.632Z,720.80
2024-03-23T00:24:25.600Z,658.80
2024-03-23T00:25:25.660Z,696.40
2024-03-23T00:26:25.602Z,711.60
2024-03-23T00:27:25.630Z,651.00
2024-03-23T00:28:25.620Z,727.80
2024-03-23T00:29:25.565Z,697.00
2024-03-23T00:30:25.557Z,737.60
2024-03-23T00:31:25.566Z,664.80
2024-03-23T00:32:25.581Z,573.70
2024-03-23T00:33:25.599Z,558.10
2024-03-23T00:34:25.545Z,516.60
2024-03-23T00:35:25.562Z,491.60
2024-03-23T00:36:25.549Z,698.30
2024-03-23T00:37:25.522Z,712.30
2024-03-23T00:38:25.541Z,691.60
2024-03-23T00:39:25.522Z,657.70
2024-03-23T00:40:25.503Z,660.10
2024-03-23T00:41:25.511Z,696.10
2024-03-23T00:42:25.534Z,654.60
2024-03-23T00:43:25.468Z,670.30
2024-03-23T00:44:25.499Z,694.90
2024-03-23T00:45:25.468Z,661.60
2024-03-23T00:46:25.482Z,528.50
2024-03-23T00:47:25.484Z,653.90
2024-03-23T00:48:25.454Z,727.60
2024-03-23T00:49:25.463Z,700.40
2024-03-23T00:50:25.433Z,509.50
2024-03-23T00:51:25.445Z,534.50
2024-03-23T00:52:25.460Z,579.10
2024-03-23T00:53:25.419Z,689.10
2024-03-23T00:54:25.428Z,668.80
2024-03-23T00:55:25.409Z,664.00
2024-03-23T00:56:25.401Z,627.30
2024-03-23T00:57:25.389Z,703.40
2024-03-23T00:58:25.398Z,707.30
2024-03-23T00:59:25.393Z,668.00
2024-03-23T01:00:25.415Z,705.80
2024-03-23T01:01:25.428Z,716.40
2024-03-23T01:02:25.409Z,744.60
2024-03-23T01:03:25.389Z,733.00
2024-03-23T01:04:25.389Z,734.20
2024-03-23T01:05:25.374Z,740.80
2024-03-23T01:06:25.338Z,731.90
2024-03-23T01:07:25.314Z,717.40
2024-03-23T01:08:25.373Z,714.90
2024-03-23T01:09:25.360Z,720.70
2024-03-23T01:10:25.305Z,758.60
2024-03-23T01:11:25.319Z,728.10
2024-03-23T01:12:25.372Z,715.30
2024-03-23T01:13:25.302Z,730.40
2024-03-23T01:14:25.304Z,686.60
2024-03-23T01:15:25.300Z,688.50
2024-03-23T01:16:25.292Z,711.60
2024-03-23T01:17:25.271Z,609.10
2024-03-23T01:18:25.262Z,734.00
2024-03-23T01:19:25.302Z,682.20
2024-03-23T01:20:25.276Z,709.90
2024-03-23T01:21:25.253Z,715.70
2024-03-23T01:22:25.245Z,637.90
2024-03-23T01:23:25.237Z,711.80
2024-03-23T01:24:25.249Z,699.10
2024-03-23T01:25:25.224Z,695.80
2024-03-23T01:26:25.211Z,723.90
2024-03-23T01:27:25.266Z,736.10
2024-03-23T01:28:25.192Z,741.50
2024-03-23T01:29:25.194Z,733.20
2024-03-23T01:30:25.213Z,750.60
2024-03-23T01:31:25.192Z,748.80
2024-03-23T01:32:25.265Z,709.70
2024-03-23T01:33:25.206Z,661.30
2024-03-23T01:34:25.193Z,700.60
2024-03-23T01:35:25.778Z,732.50
2024-03-23T01:36:25.190Z,754.40
2024-03-23T01:37:25.142Z,700.20
2024-03-23T01:38:25.128Z,731.20
2024-03-23T01:39:25.192Z,735.70
2024-03-23T01:40:25.160Z,722.80
2024-03-23T01:41:25.141Z,766.40
2024-03-23T01:42:25.211Z,730.50
2024-03-23T01:43:25.129Z,708.00
2024-03-23T01:44:25.118Z,707.00
2024-03-23T01:45:25.116Z,733.10
2024-03-23T01:46:25.101Z,730.00
2024-03-23T01:47:25.111Z,710.60
2024-03-23T01:48:25.134Z,729.70
2024-03-23T01:49:25.062Z,739.50
2024-03-23T01:50:25.103Z,739.60
2024-03-23T01:51:25.110Z,725.90
2024-03-23T01:52:25.059Z,723.90
2024-03-23T01:53:25.035Z,749.90
2024-03-23T01:54:25.086Z,757.30
2024-03-23T01:55:25.052Z,754.40
2024-03-23T01:56:25.056Z,774.50
2024-03-23T01:57:25.063Z,703.30
2024-03-23T01:58:25.022Z,734.10
2024-03-23T01:59:25.016Z,675.30
2024-03-23T02:00:25.081Z,737.60
2024-03-23T02:01:25.028Z,726.90
2024-03-23T02:02:25.062Z,704.50
2024-03-23T02:03:25.043Z,710.80
2024-03-23T02:04:24.990Z,739.80
2024-03-23T02:05:25.029Z,742.00
2024-03-23T02:06:25.042Z,743.90
2024-03-23T02:07:24.991Z,757.40
2024-03-23T02:08:24.973Z,722.90
2024-03-23T02:09:25.039Z,753.50
2024-03-23T02:10:24.971Z,763.10
2024-03-23T02:11:24.951Z,743.20
2024-03-23T02:12:25.074Z,734.20
2024-03-23T02:13:24.989Z,819.70
2024-03-23T02:14:24.934Z,780.50
2024-03-23T02:15:24.969Z,789.90
2024-03-23T02:16:24.978Z,751.90
2024-03-23T02:17:24.944Z,734.60
2024-03-23T02:18:24.949Z,724.10
2024-03-23T02:19:24.906Z,779.70
2024-03-23T02:20:24.902Z,769.10
2024-03-23T02:21:24.914Z,796.00
2024-03-23T02:22:24.880Z,746.30
2024-03-23T02:23:24.876Z,764.30
2024-03-23T02:24:24.914Z,775.00
2024-03-23T02:25:24.869Z,730.80
2024-03-23T02:26:24.876Z,733.10
2024-03-23T02:27:24.877Z,698.10
2024-03-23T02:28:24.842Z,739.00
2024-03-23T02:29:24.821Z,740.70
2024-03-23T02:30:24.848Z,716.90
2024-03-23T02:31:24.819Z,771.40
2024-03-23T02:32:24.933Z,788.70
2024-03-23T02:33:24.833Z,807.90
2024-03-23T02:34:24.838Z,826.30
2024-03-23T02:35:24.789Z,804.00
2024-03-23T02:36:24.850Z,783.70
2024-03-23T02:37:24.800Z,805.10
2024-03-23T02:38:24.813Z,742.00
2024-03-23T02:39:24.820Z,767.40
2024-03-23T02:40:24.814Z,871.50
2024-03-23T02:41:24.782Z,830.20
2024-03-23T02:42:24.856Z,775.10
2024-03-23T02:43:24.764Z,776.80
2024-03-23T02:44:24.750Z,785.10
2024-03-23T02:45:24.757Z,833.20
2024-03-23T02:46:24.759Z,856.60
2024-03-23T02:47:24.744Z,866.80
2024-03-23T02:48:24.778Z,822.80
2024-03-23T02:49:24.733Z,709.80
2024-03-23T02:50:24.792Z,667.50
2024-03-23T02:51:24.728Z,853.00
2024-03-23T02:52:24.741Z,825.90
2024-03-23T02:53:24.694Z,936.20
2024-03-23T02:54:24.747Z,825.00
2024-03-23T02:55:24.694Z,798.00
2024-03-23T02:56:24.719Z,918.00
2024-03-23T02:57:24.693Z,970.70
2024-03-23T02:58:24.713Z,980.30
2024-03-23T02:59:24.719Z,909.40
2024-03-23T03:00:24.686Z,1008.10
2024-03-23T03:01:24.729Z,999.20
2024-03-23T03:02:24.731Z,963.00
2024-03-23T03:03:24.770Z,1079.50
2024-03-23T03:04:24.629Z,995.90
2024-03-23T03:05:24.638Z,1026.20
2024-03-23T03:06:24.670Z,1014.70
2024-03-23T03:07:24.647Z,1036.40
2024-03-23T03:08:24.614Z,1049.50
2024-03-23T03:09:24.735Z,986.90
2024-03-23T03:10:24.648Z,1061.60
2024-03-23T03:11:24.594Z,1014.80
2024-03-23T03:12:24.650Z,1067.10
2024-03-23T03:13:24.597Z,1039.70
2024-03-23T03:14:24.588Z,1094.70
2024-03-23T03:15:24.599Z,1065.30
2024-03-23T03:16:24.630Z,1088.40
2024-03-23T03:17:24.610Z,1099.40
2024-03-23T03:18:24.572Z,1099.80
2024-03-23T03:19:24.567Z,1040.10
2024-03-23T03:20:24.543Z,1084.20
2024-03-23T03:21:24.589Z,1093.70
2024-03-23T03:22:24.540Z,1076.40
2024-03-23T03:23:24.531Z,940.80
2024-03-23T03:24:24.576Z,1059.00
2024-03-23T03:25:24.575Z,946.80
2024-03-23T03:26:24.550Z,964.00
2024-03-23T03:27:24.914Z,1000.90
2024-03-23T03:28:24.526Z,857.00
2024-03-23T03:29:24.499Z,949.90
2024-03-23T03:30:24.487Z,983.90
2024-03-23T03:31:24.513Z,970.30
2024-03-23T03:32:24.530Z,1043.20
2024-03-23T03:33:24.495Z,949.80
2024-03-23T03:34:24.482Z,954.80
2024-03-23T03:35:24.465Z,895.00
2024-03-23T03:36:24.467Z,925.20
2024-03-23T03:37:24.439Z,988.90
2024-03-23T03:38:24.475Z,918.00
2024-03-23T03:39:24.459Z,930.30
2024-03-23T03:40:24.424Z,924.50
2024-03-23T03:41:24.433Z,868.80
2024-03-23T03:42:24.415Z,940.10
2024-03-23T03:43:24.395Z,936.00
2024-03-23T03:44:24.484Z,958.60
2024-03-23T03:45:24.398Z,961.70
2024-03-23T03:46:24.423Z,897.90
2024-03-23T03:47:24.500Z,966.60
2024-03-23T03:48:24.439Z,922.70
2024-03-23T03:49:24.375Z,1005.90
2024-03-23T03:50:24.416Z,1028.40
2024-03-23T03:51:24.387Z,943.80
2024-03-23T03:52:24.464Z,953.60
2024-03-23T03:53:24.375Z,937.70
2024-03-23T03:54:24.347Z,1009.20
2024-03-23T03:55:25.473Z,947.40
2024-03-23T03:56:24.334Z,982.30
2024-03-23T03:57:24.345Z,984.10
2024-03-23T03:58:24.341Z,1011.70
2024-03-23T03:59:24.339Z,922.30
2024-03-23T04:00:24.390Z,978.60
2024-03-23T04:01:24.330Z,936.10
2024-03-23T04:02:24.400Z,951.20
2024-03-23T04:03:24.309Z,941.60
2024-03-23T04:04:24.405Z,959.10
2024-03-23T04:05:24.320Z,900.80
2024-03-23T04:06:25.263Z,927.90
2024-03-23T04:07:24.282Z,915.30
2024-03-23T04:08:24.297Z,937.40
2024-03-23T04:09:24.283Z,915.80
2024-03-23T04:10:24.270Z,915.30
2024-03-23T04:11:24.298Z,891.30
2024-03-23T04:12:24.327Z,917.10
2024-03-23T04:13:24.252Z,945.70
2024-03-23T04:14:24.277Z,907.20
2024-03-23T04:15:24.242Z,894.10
2024-03-23T04:16:24.265Z,1028.60
2024-03-23T04:17:24.238Z,859.30
2024-03-23T04:18:24.248Z,878.60
2024-03-23T04:19:24.219Z,933.80
2024-03-23T04:20:24.281Z,983.60
2024-03-23T04:21:24.245Z,892.50
2024-03-23T04:22:24.181Z,885.30
2024-03-23T04:23:24.169Z,988.50
2024-03-23T04:24:24.747Z,932.20
2024-03-23T04:25:24.190Z,946.50
2024-03-23T04:26:24.178Z,882.80
2024-03-23T04:27:24.291Z,979.20
2024-03-23T04:28:24.162Z,929.10
2024-03-23T04:29:24.165Z,808.40
2024-03-23T04:30:24.180Z,865.10
2024-03-23T04:31:24.120Z,927.70
2024-03-23T04:32:24.211Z,959.90
2024-03-23T04:33:24.112Z,908.10
2024-03-23T04:34:24.136Z,939.80
2024-03-23T04:35:24.107Z,906.40
2024-03-23T04:36:24.136Z,1034.50
2024-03-23T04:37:24.108Z,1042.60
2024-03-23T04:38:24.070Z,1049.20
2024-03-23T04:39:24.094Z,1072.00
2024-03-23T04:40:24.110Z,898.30
2024-03-23T04:41:24.095Z,1014.60
2024-03-23T04:42:24.086Z,906.50
2024-03-23T04:43:24.096Z,1096.00
2024-03-23T04:44:24.037Z,924.40
2024-03-23T04:45:24.098Z,1000.70
2024-03-23T04:46:24.091Z,943.40
2024-03-23T04:47:24.066Z,1018.30
2024-03-23T04:48:24.072Z,1035.00
2024-03-23T04:49:24.026Z,1048.70
2024-03-23T04:50:24.018Z,1064.50
2024-03-23T04:51:24.001Z,1059.40
2024-03-23T04:52:24.018Z,1088.40
2024-03-23T04:53:24.009Z,1063.90
2024-03-23T04:54:24.016Z,1095.30
2024-03-23T04:55:24.067Z,1007.70
2024-03-23T04:56:23.980Z,1074.10
2024-03-23T04:57:23.961Z,936.50
2024-03-23T04:58:24.711Z,1084.30
2024-03-23T04:59:23.954Z,995.40
2024-03-23T05:00:23.950Z,997.10
2024-03-23T05:01:23.947Z,1039.60
2024-03-23T05:02:23.924Z,1070.60
2024-03-23T05:03:23.957Z,976.30
2024-03-23T05:04:23.936Z,985.60
2024-03-23T05:05:23.905Z,874.20
2024-03-23T05:06:23.887Z,1029.00
2024-03-23T05:07:23.892Z,916.80
2024-03-23T05:08:23.928Z,1021.60
2024-03-23T05:09:23.902Z,1072.90
2024-03-23T05:10:23.875Z,1089.20
2024-03-23T05:11:23.919Z,1083.80
2024-03-23T05:12:23.882Z,903.00
2024-03-23T05:13:23.888Z,1038.70
2024-03-23T05:14:23.841Z,1048.80
2024-03-23T05:15:23.857Z,994.10
2024-03-23T05:16:23.858Z,1017.80
2024-03-23T05:17:23.842Z,1063.10
2024-03-23T05:18:23.888Z,975.20
2024-03-23T05:19:23.840Z,1055.20
2024-03-23T05:20:23.818Z,1030.70
2024-03-23T05:21:24.834Z,1038.00
2024-03-23T05:22:23.835Z,959.40
2024-03-23T05:23:23.816Z,1017.30
2024-03-23T05:24:23.791Z,926.70
2024-03-23T05:25:23.794Z,1038.10
2024-03-23T05:26:23.864Z,990.60
2024-03-23T05:27:23.823Z,1039.80
2024-03-23T05:28:23.819Z,1122.20
2024-03-23T05:29:23.762Z,1111.80
2024-03-23T05:30:23.756Z,1092.80
2024-03-23T05:31:23.747Z,1149.30
2024-03-23T05:32:23.734Z,1137.50
2024-03-23T05:33:23.722Z,1029.90
2024-03-23T05:34:23.758Z,1062.30
2024-03-23T05:35:23.714Z,1065.40
2024-03-23T05:36:23.773Z,1139.90
2024-03-23T05:37:23.719Z,1101.60
2024-03-23T05:38:23.740Z,1108.20
2024-03-23T05:39:23.740Z,1092.90
2024-03-23T05:40:23.705Z,1107.40
2024-03-23T05:41:23.720Z,1066.50
2024-03-23T05:42:23.685Z,1095.80
2024-03-23T05:43:23.690Z,1085.80
2024-03-23T05:44:23.678Z,1075.90
2024-03-23T05:45:23.727Z,1110.40
2024-03-23T05:46:23.697Z,1129.60
2024-03-23T05:47:23.684Z,1077.80
2024-03-23T05:48:23.657Z,1093.80
2024-03-23T05:49:23.638Z,974.20
2024-03-23T05:50:23.649Z,1088.90
2024-03-23T05:51:23.625Z,934.90
2024-03-23T05:52:23.680Z,1008.40
2024-03-23T05:53:23.634Z,878.60
2024-03-23T05:54:23.608Z,1059.50
2024-03-23T05:55:23.602Z,966.10
2024-03-23T05:56:23.631Z,957.50
2024-03-23T05:57:23.581Z,927.30
2024-03-23T05:58:23.603Z,946.50
2024-03-23T05:59:23.623Z,876.50
2024-03-23T06:00:23.721Z,911.70
2024-03-23T06:01:23.626Z,951.40
2024-03-23T06:02:23.564Z,975.20
2024-03-23T06:03:23.576Z,978.90
2024-03-23T06:04:23.545Z,1043.40
2024-03-23T06:05:23.556Z,1029.40
2024-03-23T06:06:23.582Z,1069.60
2024-03-23T06:07:23.576Z,985.90
2024-03-23T06:08:23.681Z,1065.10
2024-03-23T06:09:23.538Z,1030.70
2024-03-23T06:10:23.570Z,1011.70
2024-03-23T06:11:23.514Z,1120.40
2024-03-23T06:12:24.212Z,940.70
2024-03-23T06:13:24.130Z,1040.30
2024-03-23T06:14:23.495Z,1044.50
2024-03-23T06:15:23.493Z,1039.70
2024-03-23T06:16:23.535Z,977.80
2024-03-23T06:17:23.491Z,1107.00
2024-03-23T06:18:23.481Z,1120.10
2024-03-23T06:19:23.629Z,1129.10
2024-03-23T06:20:23.481Z,1101.10
2024-03-23T06:21:23.464Z,1153.10
2024-03-23T06:22:23.581Z,1118.40
2024-03-23T06:23:23.451Z,898.80
2024-03-23T06:24:23.430Z,978.90
2024-03-23T06:25:23.416Z,914.90
2024-03-23T06:26:23.561Z,1152.60
2024-03-23T06:27:23.444Z,1147.30
2024-03-23T06:28:23.471Z,1153.50
2024-03-23T06:29:23.377Z,1130.40
2024-03-23T06:30:23.406Z,912.30
2024-03-23T06:31:23.421Z,1053.80
2024-03-23T06:32:23.454Z,1169.60
2024-03-23T06:33:23.434Z,1003.60
2024-03-23T06:34:23.428Z,964.30
2024-03-23T06:35:23.353Z,979.10
2024-03-23T06:36:23.378Z,1082.60
2024-03-23T06:37:23.364Z,1033.50
2024-03-23T06:38:23.366Z,1125.80
2024-03-23T06:39:23.352Z,984.30
2024-03-23T06:40:23.467Z,991.40
2024-03-23T06:41:25.102Z,1038.10
2024-03-23T06:42:23.312Z,913.50
2024-03-23T06:43:23.324Z,1055.70
2024-03-23T06:44:23.309Z,1006.70
2024-03-23T06:45:23.288Z,1107.50
2024-03-23T06:46:23.324Z,1028.10
2024-03-23T06:47:23.349Z,1054.20
2024-03-23T06:48:23.338Z,961.70
2024-03-23T06:49:23.269Z,1059.60
2024-03-23T06:50:23.342Z,1040.90
2024-03-23T06:51:23.343Z,1108.40
2024-03-23T06:52:23.285Z,1042.50
2024-03-23T06:53:23.286Z,1076.60
2024-03-23T06:54:23.283Z,907.00
2024-03-23T06:55:23.282Z,1146.90
2024-03-23T06:56:23.227Z,1076.30
2024-03-23T06:57:23.250Z,917.60
2024-03-23T06:58:23.221Z,1038.50
2024-03-23T06:59:23.223Z,1116.70
2024-03-23T07:00:23.323Z,1047.60
2024-03-23T07:01:24.167Z,941.20
2024-03-23T07:02:23.222Z,1076.30
2024-03-23T07:03:23.245Z,1092.60
2024-03-23T07:04:23.191Z,1076.00
2024-03-23T07:05:23.183Z,1063.20
2024-03-23T07:06:25.086Z,912.70
2024-03-23T07:07:24.262Z,1157.60
2024-03-23T07:08:23.179Z,1014.50
2024-03-23T07:09:23.148Z,1038.80
2024-03-23T07:10:23.152Z,965.70
2024-03-23T07:11:23.165Z,1003.10
2024-03-23T07:12:23.130Z,1111.50
2024-03-23T07:13:23.148Z,1093.50
2024-03-23T07:14:23.130Z,1140.90
2024-03-23T07:15:23.101Z,1068.30
2024-03-23T07:16:23.136Z,1161.60
2024-03-23T07:17:23.155Z,1159.50
2024-03-23T07:18:23.102Z,1014.70
2024-03-23T07:19:23.095Z,994.40
2024-03-23T07:20:23.099Z,955.30
2024-03-23T07:21:23.079Z,1060.00
2024-03-23T07:22:23.075Z,979.20
2024-03-23T07:23:23.060Z,1071.40
2024-03-23T07:24:23.081Z,902.10
2024-03-23T07:25:23.090Z,988.50
2024-03-23T07:26:23.131Z,950.00
2024-03-23T07:27:23.154Z,1058.50
2024-03-23T07:28:23.076Z,1128.50
2024-03-23T07:29:23.052Z,997.10
2024-03-23T07:30:23.018Z,1031.40
2024-03-23T07:31:23.079Z,1054.70
2024-03-23T07:32:23.135Z,1059.80
2024-03-23T07:33:23.732Z,1042.30
2024-03-23T07:34:23.072Z,1075.80
2024-03-23T07:35:23.019Z,1034.50
2024-03-23T07:36:23.000Z,1010.30
2024-03-23T07:37:24.524Z,1020.10
2024-03-23T07:38:23.199Z,1104.60
2024-03-23T07:39:22.987Z,1075.30
2024-03-23T07:40:23.818Z,902.10
2024-03-23T07:41:22.969Z,1085.20
2024-03-23T07:42:22.975Z,1034.00
2024-03-23T07:43:22.973Z,1037.40
2024-03-23T07:44:22.958Z,1058.00
2024-03-23T07:45:22.967Z,1000.10
2024-03-23T07:46:23.170Z,1036.00
2024-03-23T07:47:24.228Z,876.20
2024-03-23T07:48:23.124Z,987.00
2024-03-23T07:49:22.935Z,1032.60
2024-03-23T07:50:23.038Z,1108.20
2024-03-23T07:51:22.920Z,1097.70
2024-03-23T07:52:22.887Z,1118.30
2024-03-23T07:53:22.907Z,1119.50
2024-03-23T07:54:22.929Z,1109.10
2024-03-23T07:55:22.889Z,1114.40
2024-03-23T07:56:22.863Z,1101.30
2024-03-23T07:57:22.906Z,1045.00
2024-03-23T07:58:22.851Z,1037.80
2024-03-23T07:59:22.853Z,998.90
2024-03-23T08:00:22.836Z,977.30
2024-03-23T08:01:22.819Z,985.90
2024-03-23T08:02:22.888Z,1044.20
2024-03-23T08:03:22.853Z,1114.60
2024-03-23T08:04:22.821Z,1131.90
2024-03-23T08:05:23.692Z,1117.00
2024-03-23T08:06:22.839Z,1094.10
2024-03-23T08:07:22.805Z,1135.60
2024-03-23T08:08:22.785Z,1083.40
2024-03-23T08:09:22.789Z,1055.10
2024-03-23T08:10:22.761Z,1093.40
2024-03-23T08:11:22.838Z,1061.70
2024-03-23T08:12:23.589Z,1050.80
2024-03-23T08:13:22.750Z,1062.60
2024-03-23T08:14:22.792Z,973.70
2024-03-23T08:15:23.782Z,1048.80
2024-03-23T08:16:22.726Z,1021.20
2024-03-23T08:17:22.721Z,1015.10
2024-03-23T08:18:22.769Z,1052.30
2024-03-23T08:19:22.776Z,990.70
2024-03-23T08:20:22.710Z,1021.30
2024-03-23T08:21:22.715Z,1103.90
2024-03-23T08:22:22.733Z,983.90
2024-03-23T08:23:22.725Z,1042.40
2024-03-23T08:24:22.715Z,1058.60
2024-03-23T08:25:22.685Z,1027.50
2024-03-23T08:26:22.696Z,1089.80
2024-03-23T08:27:22.649Z,1067.20
2024-03-23T08:28:22.690Z,1080.70
2024-03-23T08:29:22.694Z,1057.30
2024-03-23T08:30:22.675Z,985.40
2024-03-23T08:31:22.684Z,1108.80
2024-03-23T08:32:22.622Z,1118.10
2024-03-23T08:33:22.615Z,1115.50
2024-03-23T08:34:23.653Z,1040.80
2024-03-23T08:35:23.922Z,1070.90
2024-03-23T08:36:22.603Z,1027.10
2024-03-23T08:37:22.602Z,1047.60
2024-03-23T08:38:22.627Z,1088.50
2024-03-23T08:39:28.318Z,972.50
2024-03-23T08:40:24.645Z,1016.60
2024-03-23T08:41:22.617Z,1026.90
2024-03-23T08:42:22.647Z,1049.10
2024-03-23T08:43:23.221Z,987.40
2024-03-23T08:44:22.547Z,964.30
2024-03-23T08:45:22.581Z,1037.80
2024-03-23T08:46:22.551Z,1104.60
2024-03-23T08:47:22.568Z,1069.20
2024-03-23T08:48:22.566Z,1106.70
2024-03-23T08:49:22.895Z,1078.90
2024-03-23T08:50:22.550Z,1173.80
2024-03-23T08:51:22.546Z,1059.60
2024-03-23T08:52:22.514Z,1070.10
2024-03-23T08:53:22.512Z,1184.20
2024-03-23T08:54:22.538Z,1018.00
2024-03-23T08:55:22.586Z,1076.50
2024-03-23T08:56:22.595Z,1024.20
2024-03-23T08:57:22.505Z,1128.00
2024-03-23T08:58:23.216Z,1043.30
2024-03-23T08:59:22.470Z,1039.00
2024-03-23T09:00:22.675Z,1060.30
2024-03-23T09:01:22.446Z,1055.50
2024-03-23T09:02:22.513Z,1129.10
2024-03-23T09:03:22.442Z,1050.20
2024-03-23T09:04:22.447Z,1001.70
2024-03-23T09:05:22.451Z,954.40
2024-03-23T09:06:22.454Z,873.30
2024-03-23T09:07:22.405Z,1075.30
2024-03-23T09:08:22.454Z,1028.40
2024-03-23T09:09:22.429Z,1028.30
2024-03-23T09:10:22.454Z,1017.10
2024-03-23T09:11:22.544Z,1018.20
2024-03-23T09:12:22.483Z,1074.00
2024-03-23T09:13:22.396Z,980.30
2024-03-23T09:14:22.465Z,1043.10
2024-03-23T09:15:22.392Z,1020.90
2024-03-23T09:16:22.397Z,986.50
2024-03-23T09:17:22.365Z,990.20
2024-03-23T09:18:22.360Z,1010.40
2024-03-23T09:19:22.858Z,989.50
2024-03-23T09:20:22.349Z,1069.60
2024-03-23T09:21:22.345Z,1038.80
2024-03-23T09:22:22.340Z,1026.80
2024-03-23T09:23:22.411Z,1098.70
2024-03-23T09:24:22.328Z,1054.40
2024-03-23T09:25:22.329Z,984.10
2024-03-23T09:26:22.349Z,1024.30
2024-03-23T09:27:22.335Z,1045.00
2024-03-23T09:28:22.308Z,1037.90
2024-03-23T09:29:22.308Z,1122.50
2024-03-23T09:30:22.305Z,1082.80
2024-03-23T09:31:22.281Z,1084.80
2024-03-23T09:32:22.287Z,1023.10
2024-03-23T09:33:22.275Z,1002.80
2024-03-23T09:34:22.288Z,911.40
2024-03-23T09:35:22.277Z,1021.00
2024-03-23T09:36:22.234Z,917.50
2024-03-23T09:37:22.275Z,887.60
2024-03-23T09:38:22.285Z,991.20
2024-03-23T09:39:23.842Z,1057.20
2024-03-23T09:40:22.228Z,918.00
2024-03-23T09:41:22.207Z,1035.30
2024-03-23T09:42:22.214Z,1048.60
2024-03-23T09:43:22.231Z,1175.00
2024-03-23T09:44:22.195Z,1113.70
2024-03-23T09:45:22.192Z,1115.10
2024-03-23T09:46:22.212Z,1091.50
2024-03-23T09:47:22.191Z,1043.70
2024-03-23T09:48:22.176Z,962.90
2024-03-23T09:49:22.211Z,959.60
2024-03-23T09:50:22.158Z,1102.90
2024-03-23T09:51:22.193Z,1097.50
2024-03-23T09:52:22.155Z,915.20
2024-03-23T09:53:22.130Z,942.90
2024-03-23T09:54:22.134Z,1009.20
2024-03-23T09:55:22.157Z,925.30
2024-03-23T09:56:22.132Z,967.00
2024-03-23T09:57:22.148Z,942.90
2024-03-23T09:58:22.129Z,1065.40
2024-03-23T09:59:22.108Z,1099.90
2024-03-23T10:00:22.158Z,974.70
2024-03-23T10:01:22.143Z,965.10
2024-03-23T10:02:22.077Z,1029.10
2024-03-23T10:03:22.078Z,867.00
2024-03-23T10:04:22.092Z,940.70
2024-03-23T10:05:24.308Z,742.30
2024-03-23T10:06:22.088Z,710.50
2024-03-23T10:07:22.045Z,722.30
2024-03-23T10:08:22.064Z,799.20
2024-03-23T10:09:22.031Z,768.30
2024-03-23T10:10:22.129Z,833.20
2024-03-23T10:11:22.068Z,887.80
2024-03-23T10:12:22.029Z,864.70
2024-03-23T10:13:22.042Z,952.10
2024-03-23T10:14:22.001Z,732.50
2024-03-23T10:15:22.002Z,1073.00
2024-03-23T10:16:22.000Z,933.90
2024-03-23T10:17:22.027Z,977.80
2024-03-23T10:18:22.057Z,1009.60
2024-03-23T10:19:21.979Z,1027.20
2024-03-23T10:20:21.967Z,916.90
2024-03-23T10:21:22.024Z,863.00
2024-03-23T10:22:21.975Z,1043.70
2024-03-23T10:23:21.969Z,793.10
2024-03-23T10:24:22.769Z,1030.80
2024-03-23T10:25:21.957Z,1131.80
2024-03-23T10:26:21.941Z,1123.30
2024-03-23T10:27:21.917Z,979.80
2024-03-23T10:28:22.008Z,1071.30
2024-03-23T10:29:21.942Z,967.10
2024-03-23T10:30:21.939Z,1045.10
2024-03-23T10:31:21.905Z,952.50
2024-03-23T10:32:21.926Z,828.20
2024-03-23T10:33:21.885Z,1115.90
2024-03-23T10:34:21.901Z,1056.40
2024-03-23T10:35:21.901Z,984.00
2024-03-23T10:36:21.899Z,906.80
2024-03-23T10:37:21.875Z,936.70
2024-03-23T10:38:21.896Z,1028.50
2024-03-23T10:39:21.897Z,1027.00
2024-03-23T10:40:21.895Z,992.90
2024-03-23T10:41:21.844Z,914.20
2024-03-23T10:42:21.894Z,877.90
2024-03-23T10:43:21.844Z,936.90
2024-03-23T10:44:21.845Z,974.00
2024-03-23T10:45:21.905Z,978.10
2024-03-23T10:46:21.818Z,963.70
2024-03-23T10:47:21.876Z,987.40
2024-03-23T10:48:21.806Z,1197.10
2024-03-23T10:49:21.821Z,1153.40
2024-03-23T10:50:21.832Z,1201.40
2024-03-23T10:51:22.807Z,938.90
2024-03-23T10:52:21.842Z,1024.40
2024-03-23T10:53:21.799Z,892.10
2024-03-23T10:54:21.799Z,900.60
2024-03-23T10:55:21.777Z,1040.50
2024-03-23T10:56:21.810Z,980.00
2024-03-23T10:57:21.755Z,994.10
2024-03-23T10:58:21.753Z,948.90
2024-03-23T10:59:21.748Z,750.40
2024-03-23T11:00:21.762Z,1019.40
2024-03-23T11:01:21.742Z,965.70
2024-03-23T11:02:21.775Z,814.40
2024-03-23T11:03:21.761Z,839.80
2024-03-23T11:04:21.770Z,912.10
2024-03-23T11:05:21.754Z,850.00
2024-03-23T11:06:21.770Z,795.50
2024-03-23T11:07:21.721Z,786.40
2024-03-23T11:08:21.700Z,830.60
2024-03-23T11:09:21.742Z,795.20
2024-03-23T11:10:21.771Z,909.10
2024-03-23T11:11:21.666Z,818.50
2024-03-23T11:12:21.712Z,914.80
2024-03-23T11:13:21.700Z,921.80
2024-03-23T11:14:21.690Z,819.60
2024-03-23T11:15:21.654Z,802.10
2024-03-23T11:16:21.714Z,912.70
2024-03-23T11:17:21.679Z,718.30
2024-03-23T11:18:21.685Z,729.60
2024-03-23T11:19:21.635Z,674.00
2024-03-23T11:20:21.658Z,605.60
2024-03-23T11:21:21.628Z,704.00
2024-03-23T11:22:21.643Z,836.10
2024-03-23T11:23:21.602Z,956.00
2024-03-23T11:24:21.614Z,959.50
2024-03-23T11:25:21.585Z,882.90
2024-03-23T11:26:21.596Z,824.00
2024-03-23T11:27:21.576Z,691.20
2024-03-23T11:28:21.614Z,779.70
2024-03-23T11:29:21.559Z,647.70
2024-03-23T11:30:21.575Z,714.80
2024-03-23T11:31:21.577Z,838.80
2024-03-23T11:32:21.607Z,803.70
2024-03-23T11:33:21.545Z,794.00
2024-03-23T11:34:21.553Z,945.10
2024-03-23T11:35:21.518Z,968.10
2024-03-23T11:36:21.554Z,1046.50
2024-03-23T11:37:21.578Z,1083.60
2024-03-23T11:38:21.526Z,1000.90
2024-03-23T11:39:21.515Z,1033.30
2024-03-23T11:40:21.517Z,1072.00
2024-03-23T11:41:21.490Z,1073.70
2024-03-23T11:42:21.505Z,1185.30
2024-03-23T11:43:21.499Z,983.00
2024-03-23T11:44:21.491Z,852.00
2024-03-23T11:45:22.471Z,736.40
2024-03-23T11:46:21.457Z,735.20
2024-03-23T11:47:21.504Z,757.30
2024-03-23T11:48:21.502Z,778.80
2024-03-23T11:49:21.489Z,817.00
2024-03-23T11:50:21.451Z,712.30
2024-03-23T11:51:21.437Z,541.40
2024-03-23T11:52:21.518Z,553.00
2024-03-23T11:53:21.408Z,522.40
2024-03-23T11:54:21.407Z,513.80
2024-03-23T11:55:21.418Z,545.00
2024-03-23T11:56:21.386Z,747.20
2024-03-23T11:57:21.456Z,752.60
2024-03-23T11:58:21.393Z,551.20
2024-03-23T11:59:22.417Z,487.80
2024-03-23T12:00:21.410Z,738.30
2024-03-23T12:01:21.397Z,671.90
2024-03-23T12:02:21.405Z,663.50
2024-03-23T12:03:21.366Z,660.30
2024-03-23T12:04:21.362Z,672.20
2024-03-23T12:05:21.379Z,609.80
2024-03-23T12:06:21.351Z,619.20
2024-03-23T12:07:21.394Z,648.90
2024-03-23T12:08:21.338Z,511.60
2024-03-23T12:09:21.335Z,571.10
2024-03-23T12:10:21.341Z,547.60
2024-03-23T12:11:21.322Z,603.50
2024-03-23T12:12:21.326Z,659.20
2024-03-23T12:13:21.346Z,808.20
2024-03-23T12:14:21.297Z,960.20
2024-03-23T12:15:22.291Z,925.10
2024-03-23T12:16:21.270Z,982.40
2024-03-23T12:17:21.268Z,960.80
2024-03-23T12:18:21.407Z,882.70
2024-03-23T12:19:21.265Z,986.90